createdAt,value
2023-02-08T00:00:15.629Z,12.00
2023-02-08T00:02:42.809Z,11.50
2023-02-08T00:05:10.065Z,11.00
2023-02-08T00:07:37.328Z,11.40
2023-02-08T00:10:06.265Z,12.90
2023-02-08T00:12:35.840Z,12.10
2023-02-08T00:15:03.928Z,11.40
2023-02-08T00:17:31.337Z,12.50
2023-02-08T00:19:58.285Z,11.50
2023-02-08T00:22:25.080Z,12.00
2023-02-08T00:24:51.941Z,11.40
2023-02-08T00:27:18.945Z,11.90
2023-02-08T00:29:46.349Z,11.50
2023-02-08T00:32:13.554Z,12.50
2023-02-08T00:34:41.762Z,12.00
2023-02-08T00:37:10.543Z,12.20
2023-02-08T00:39:37.743Z,12.20
2023-02-08T00:42:04.784Z,12.50
2023-02-08T00:44:32.909Z,13.00
2023-02-08T00:46:59.750Z,13.10
2023-02-08T00:49:26.613Z,13.00
2023-02-08T00:51:53.580Z,12.40
2023-02-08T00:54:20.631Z,13.00
2023-02-08T00:56:47.678Z,14.30
2023-02-08T00:59:14.560Z,14.80
2023-02-08T01:01:44.024Z,14.30
2023-02-08T01:04:11.176Z,14.50
2023-02-08T01:06:42.571Z,13.80
2023-02-08T01:09:11.756Z,12.50
2023-02-08T01:11:38.816Z,13.40
2023-02-08T01:14:05.934Z,12.50
2023-02-08T01:16:33.359Z,13.50
2023-02-08T01:19:01.148Z,13.80
2023-02-08T01:21:29.998Z,13.40
2023-02-08T01:24:01.586Z,13.10
2023-02-08T01:26:34.468Z,12.00
2023-02-08T01:29:01.694Z,11.70
2023-02-08T01:31:33.918Z,12.10
2023-02-08T01:34:00.816Z,12.90
2023-02-08T01:36:28.072Z,13.10
2023-02-08T01:38:54.971Z,12.70
2023-02-08T01:41:26.709Z,13.50
2023-02-08T01:44:12.128Z,13.50
2023-02-08T01:46:42.325Z,13.40
2023-02-08T01:49:19.455Z,13.40
2023-02-08T01:51:52.201Z,13.00
2023-02-08T01:54:21.556Z,13.70
2023-02-08T01:56:48.631Z,11.90
2023-02-08T01:59:56.538Z,13.20
2023-02-08T02:02:24.936Z,13.90
2023-02-08T02:04:53.674Z,13.60
2023-02-08T02:07:21.325Z,12.90
2023-02-08T02:09:51.281Z,13.20
2023-02-08T02:12:19.631Z,14.20
2023-02-08T02:14:46.480Z,12.90
2023-02-08T02:17:13.474Z,14.40
2023-02-08T02:20:09.798Z,13.60
2023-02-08T02:22:58.308Z,12.50
2023-02-08T02:25:44.938Z,13.00
2023-02-08T02:28:34.107Z,14.20
2023-02-08T02:31:21.707Z,14.30
2023-02-08T02:33:53.091Z,12.10
2023-02-08T02:36:52.007Z,12.90
2023-02-08T02:39:31.039Z,14.10
2023-02-08T02:42:33.667Z,13.40
2023-02-08T02:45:15.541Z,13.70
2023-02-08T02:50:53.446Z,12.70
2023-02-08T02:53:28.841Z,13.60
2023-02-08T02:56:01.168Z,13.60
2023-02-08T02:58:28.076Z,14.00
2023-02-08T03:00:56.128Z,13.60
2023-02-08T03:03:25.952Z,14.50
2023-02-08T03:05:56.054Z,13.70
2023-02-08T03:09:03.578Z,14.40
2023-02-08T03:11:32.721Z,14.20
2023-02-08T03:14:12.591Z,14.10
2023-02-08T03:17:07.696Z,13.70
2023-02-08T03:20:26.154Z,13.80
2023-02-08T03:23:10.888Z,13.60
2023-02-08T03:25:50.804Z,14.20
2023-02-08T03:28:20.384Z,14.00
2023-02-08T03:30:56.499Z,14.40
2023-02-08T03:33:35.411Z,14.90
2023-02-08T03:36:10.241Z,15.80
2023-02-08T03:38:40.252Z,14.90
2023-02-08T03:41:09.774Z,17.00
2023-02-08T03:43:40.549Z,16.20
2023-02-08T03:46:15.250Z,15.50
2023-02-08T03:48:49.218Z,15.40
2023-02-08T03:51:16.008Z,15.40
2023-02-08T03:53:44.230Z,14.90
2023-02-08T03:56:20.341Z,16.10
2023-02-08T03:58:55.527Z,15.90
2023-02-08T04:01:36.336Z,15.00
2023-02-08T04:04:03.441Z,14.70
2023-02-08T04:06:32.172Z,14.80
2023-02-08T04:08:58.972Z,15.00
2023-02-08T04:11:28.347Z,14.30
2023-02-08T04:13:56.018Z,15.70
2023-02-08T04:16:22.908Z,15.50
2023-02-08T04:18:50.033Z,15.30
2023-02-08T04:21:17.020Z,16.80
2023-02-08T04:23:44.077Z,15.70
2023-02-08T04:26:10.918Z,15.60
2023-02-08T04:28:37.700Z,16.40
2023-02-08T04:31:04.731Z,17.10
2023-02-08T04:33:31.825Z,17.70
2023-02-08T04:35:59.192Z,19.00
2023-02-08T04:38:26.114Z,18.20
2023-02-08T04:40:52.852Z,18.40
2023-02-08T04:43:19.652Z,18.00
2023-02-08T04:45:49.541Z,16.90
2023-02-08T04:48:17.031Z,17.30
2023-02-08T04:50:43.915Z,16.00
2023-02-08T04:53:10.689Z,17.80
2023-02-08T04:55:37.674Z,16.60
2023-02-08T04:58:04.603Z,16.80
2023-02-08T05:00:31.819Z,18.20
2023-02-08T05:03:01.551Z,16.50
2023-02-08T05:05:28.572Z,17.60
2023-02-08T05:07:57.035Z,17.10
2023-02-08T05:10:24.012Z,17.00
2023-02-08T05:12:50.892Z,17.70
2023-02-08T05:15:17.941Z,18.60
2023-02-08T05:17:45.288Z,18.50
2023-02-08T05:20:13.197Z,18.40
2023-02-08T05:22:40.132Z,19.80
2023-02-08T05:25:07.609Z,19.10
2023-02-08T05:27:35.157Z,18.30
2023-02-08T05:30:03.204Z,18.70
2023-02-08T05:32:30.595Z,18.20
2023-02-08T05:34:57.397Z,18.70
2023-02-08T05:37:24.740Z,17.90
2023-02-08T05:39:51.815Z,19.20
2023-02-08T05:42:18.609Z,19.00
2023-02-08T05:44:45.525Z,19.20
2023-02-08T05:47:12.905Z,18.60
2023-02-08T05:49:39.943Z,20.40
2023-02-08T05:52:07.107Z,19.40
2023-02-08T05:54:34.648Z,20.00
2023-02-08T05:57:01.517Z,21.10
2023-02-08T05:59:28.801Z,21.60
2023-02-08T06:01:55.676Z,22.00
2023-02-08T06:04:22.641Z,21.40
2023-02-08T06:06:49.578Z,23.00
2023-02-08T06:09:16.494Z,23.60
2023-02-08T06:11:44.249Z,23.30
2023-02-08T06:14:13.452Z,23.30
2023-02-08T06:16:40.518Z,20.70
2023-02-08T06:19:07.322Z,23.40
2023-02-08T06:21:34.319Z,20.80
2023-02-08T06:24:03.402Z,20.30
2023-02-08T06:26:30.217Z,21.60
2023-02-08T06:28:58.633Z,21.80
2023-02-08T06:31:25.476Z,21.40
2023-02-08T06:33:52.738Z,22.50
2023-02-08T06:36:19.578Z,21.20
2023-02-08T06:38:46.778Z,20.30
2023-02-08T06:41:13.592Z,20.90
2023-02-08T06:43:40.757Z,21.80
2023-02-08T06:46:08.158Z,21.20
2023-02-08T06:48:35.240Z,20.10
2023-02-08T06:51:02.058Z,20.70
2023-02-08T06:53:29.258Z,21.30
2023-02-08T06:55:56.261Z,20.10
2023-02-08T06:58:23.143Z,20.40
2023-02-08T07:00:50.553Z,20.10
2023-02-08T07:03:17.421Z,18.40
2023-02-08T07:05:58.723Z,20.90
2023-02-08T07:08:32.860Z,19.30
2023-02-08T07:11:15.384Z,19.80
2023-02-08T07:13:47.153Z,20.80
2023-02-08T07:16:14.400Z,21.00
2023-02-08T07:18:41.627Z,18.50
2023-02-08T07:21:10.097Z,19.70
2023-02-08T07:23:38.885Z,19.90
2023-02-08T07:26:07.670Z,19.40
2023-02-08T07:28:36.872Z,20.10
2023-02-08T07:31:08.123Z,19.60
2023-02-08T07:33:35.053Z,19.50
2023-02-08T07:36:04.816Z,19.10
2023-02-08T07:38:33.256Z,19.60
2023-02-08T07:41:04.912Z,19.60
2023-02-08T07:46:17.772Z,18.90
2023-02-08T07:48:44.852Z,18.40
2023-02-08T07:51:11.927Z,17.90
2023-02-08T07:53:39.904Z,19.80
2023-02-08T07:56:06.840Z,19.70
2023-02-08T07:58:36.886Z,18.30
2023-02-08T08:01:19.594Z,18.80
2023-02-08T08:03:49.859Z,19.80
2023-02-08T08:06:18.265Z,19.90
2023-02-08T08:08:47.105Z,20.50
2023-02-08T08:11:15.139Z,20.60
2023-02-08T08:13:43.209Z,20.70
2023-02-08T08:16:09.995Z,21.10
2023-02-08T08:18:37.054Z,20.90
2023-02-08T08:21:04.504Z,19.90
2023-02-08T08:23:32.825Z,19.60
2023-02-08T08:26:00.154Z,20.50
2023-02-08T08:28:27.310Z,20.20
2023-02-08T08:30:54.450Z,20.20
2023-02-08T08:33:21.322Z,18.90
2023-02-08T08:35:48.524Z,19.50
2023-02-08T08:38:15.591Z,20.90
2023-02-08T08:40:42.996Z,21.00
2023-02-08T08:43:10.533Z,19.10
2023-02-08T08:45:37.767Z,18.80
2023-02-08T08:48:05.395Z,20.00
2023-02-08T08:50:33.629Z,20.90
2023-02-08T08:53:00.652Z,20.20
2023-02-08T08:55:27.873Z,19.80
2023-02-08T08:57:54.836Z,19.90
2023-02-08T09:00:22.456Z,20.00
2023-02-08T09:02:49.546Z,19.50
2023-02-08T09:05:16.398Z,20.20
2023-02-08T09:07:43.498Z,20.10
2023-02-08T09:10:15.522Z,18.00
2023-02-08T09:12:42.766Z,19.50
2023-02-08T09:15:11.203Z,19.60
2023-02-08T09:17:39.391Z,19.40
2023-02-08T09:20:06.755Z,19.50
2023-02-08T09:22:33.707Z,20.90
2023-02-08T09:25:01.594Z,19.70
2023-02-08T09:27:29.316Z,20.10
2023-02-08T09:29:56.660Z,18.00
2023-02-08T09:32:23.576Z,15.10
2023-02-08T09:34:51.253Z,9.60
2023-02-08T09:37:19.066Z,8.60
2023-02-08T09:39:46.115Z,8.90
2023-02-08T09:42:20.916Z,9.00
2023-02-08T09:45:21.728Z,10.30
2023-02-08T09:48:00.160Z,10.10
2023-02-08T09:50:42.015Z,10.10
2023-02-08T09:53:17.666Z,10.40
2023-02-08T09:55:46.358Z,9.90
2023-02-08T09:58:17.674Z,10.40
2023-02-08T10:00:46.993Z,10.00
2023-02-08T10:03:42.020Z,10.80
2023-02-08T10:06:11.328Z,10.60
2023-02-08T10:08:38.127Z,11.10
2023-02-08T10:11:38.418Z,10.60
2023-02-08T10:14:08.687Z,10.20
2023-02-08T10:16:47.100Z,11.10
2023-02-08T10:19:46.464Z,10.50
2023-02-08T10:22:32.727Z,10.20
2023-02-08T10:25:22.283Z,11.30
2023-02-08T10:28:10.162Z,12.60
2023-02-08T10:30:42.562Z,9.60
2023-02-08T10:33:31.867Z,11.40
2023-02-08T10:35:58.819Z,11.30
2023-02-08T10:38:45.456Z,11.40
2023-02-08T10:41:29.363Z,11.60
2023-02-08T10:44:18.052Z,11.30
2023-02-08T10:46:52.340Z,11.00
2023-02-08T10:49:29.080Z,11.20
2023-02-08T10:51:55.977Z,10.00
2023-02-08T10:54:22.896Z,10.50
2023-02-08T10:56:57.995Z,11.40
2023-02-08T10:59:35.360Z,10.70
2023-02-08T11:02:02.176Z,10.10
2023-02-08T11:04:29.237Z,8.90
2023-02-08T11:06:58.019Z,9.40
2023-02-08T11:09:28.936Z,10.80
2023-02-08T11:11:57.117Z,10.30
2023-02-08T11:14:45.962Z,10.00
2023-02-08T11:17:26.172Z,10.50
2023-02-08T11:19:53.155Z,10.50
2023-02-08T11:22:21.816Z,9.70
2023-02-08T11:25:05.117Z,9.90
2023-02-08T11:27:34.288Z,11.30
2023-02-08T11:30:15.011Z,10.40
2023-02-08T11:32:43.636Z,11.00
2023-02-08T11:35:22.132Z,10.30
2023-02-08T11:37:52.958Z,10.70
2023-02-08T11:40:42.496Z,10.60
2023-02-08T11:43:33.526Z,10.90
2023-02-08T11:46:01.717Z,10.80
2023-02-08T11:48:55.481Z,12.40
2023-02-08T11:51:29.597Z,12.10
2023-02-08T11:53:59.970Z,12.10
2023-02-08T11:56:31.432Z,12.60
2023-02-08T11:59:15.746Z,11.80
2023-02-08T12:01:43.182Z,12.70
2023-02-08T12:04:12.275Z,12.10
2023-02-08T12:07:14.899Z,13.10
2023-02-08T12:09:56.982Z,12.20
2023-02-08T12:12:46.767Z,12.50
2023-02-08T12:15:16.400Z,13.10
2023-02-08T12:18:16.731Z,11.80
2023-02-08T12:20:45.094Z,12.60
2023-02-08T12:23:28.229Z,11.70
2023-02-08T12:26:07.469Z,13.20
2023-02-08T12:28:52.352Z,11.30
2023-02-08T12:31:24.304Z,10.30
2023-02-08T12:34:20.831Z,11.10
2023-02-08T12:37:15.096Z,11.00
2023-02-08T12:40:06.254Z,11.70
2023-02-08T12:43:08.309Z,11.20
2023-02-08T12:45:53.330Z,12.50
2023-02-08T12:48:49.332Z,12.30
2023-02-08T12:51:30.072Z,12.10
2023-02-08T12:53:59.244Z,12.60
2023-02-08T12:56:31.256Z,12.80
2023-02-08T12:59:11.780Z,13.80
2023-02-08T13:01:43.806Z,14.50
2023-02-08T13:04:15.189Z,16.70
2023-02-08T13:06:51.468Z,16.50
2023-02-08T13:09:35.400Z,20.10
2023-02-08T13:12:12.270Z,18.70
2023-02-08T13:14:42.358Z,20.80
2023-02-08T13:17:17.910Z,19.80
2023-02-08T13:19:59.773Z,21.30
2023-02-08T13:22:30.333Z,19.50
2023-02-08T13:25:06.968Z,21.30
2023-02-08T13:27:34.847Z,18.30
2023-02-08T13:30:01.976Z,19.40
2023-02-08T13:32:36.250Z,20.70
2023-02-08T13:35:11.443Z,20.10
2023-02-08T13:37:40.090Z,18.10
2023-02-08T13:40:10.251Z,19.00
2023-02-08T13:42:42.764Z,20.00
2023-02-08T13:45:10.628Z,18.50
2023-02-08T13:47:48.051Z,18.70
2023-02-08T13:50:29.122Z,18.00
2023-02-08T13:52:56.666Z,17.90
2023-02-08T13:55:35.520Z,17.70
2023-02-08T13:58:14.900Z,16.60
2023-02-08T14:00:56.835Z,18.80
2023-02-08T14:03:28.060Z,18.80
2023-02-08T14:05:58.125Z,18.20
2023-02-08T14:08:43.798Z,17.10
2023-02-08T14:11:34.552Z,16.80
2023-02-08T14:14:04.419Z,17.50
2023-02-08T14:16:32.288Z,18.90
2023-02-08T14:19:25.652Z,19.10
2023-02-08T14:22:00.506Z,19.10
2023-02-08T14:24:34.770Z,17.80
2023-02-08T14:27:21.569Z,17.90
2023-02-08T14:30:20.694Z,17.80
2023-02-08T14:32:51.052Z,18.70
2023-02-08T14:35:20.264Z,17.40
2023-02-08T14:37:47.721Z,19.30
2023-02-08T14:40:25.021Z,17.80
2023-02-08T14:42:52.317Z,17.30
2023-02-08T14:45:33.766Z,14.90
2023-02-08T14:48:19.780Z,16.00
2023-02-08T14:51:11.126Z,14.60
2023-02-08T14:53:41.240Z,14.10
2023-02-08T14:56:22.465Z,12.50
2023-02-08T14:58:52.929Z,12.40
2023-02-08T15:01:22.248Z,12.20
2023-02-08T15:03:50.226Z,13.10
2023-02-08T15:06:20.212Z,12.80
2023-02-08T15:08:51.685Z,14.20
2023-02-08T15:11:26.820Z,15.50
2023-02-08T15:13:54.691Z,15.20
2023-02-08T15:16:22.075Z,16.20
2023-02-08T15:18:50.066Z,15.20
2023-02-08T15:21:23.145Z,15.10
2023-02-08T15:24:18.856Z,16.10
2023-02-08T15:26:53.220Z,14.80
2023-02-08T15:29:26.122Z,13.50
2023-02-08T15:31:57.132Z,13.60
2023-02-08T15:34:25.041Z,15.60
2023-02-08T15:36:55.775Z,15.90
2023-02-08T15:39:35.041Z,15.80
2023-02-08T15:42:01.823Z,16.20
2023-02-08T15:44:30.626Z,18.10
2023-02-08T15:47:02.588Z,19.30
2023-02-08T15:49:31.237Z,25.30
2023-02-08T15:51:58.397Z,23.90
2023-02-08T15:54:25.506Z,23.30
2023-02-08T15:56:59.432Z,22.50
2023-02-08T15:59:32.366Z,22.70
2023-02-08T16:02:05.344Z,22.00
2023-02-08T16:04:40.825Z,21.00
2023-02-08T16:07:22.336Z,19.70
2023-02-08T16:09:49.197Z,19.30
2023-02-08T16:12:20.922Z,18.10
2023-02-08T16:14:52.804Z,17.30
2023-02-08T16:17:43.171Z,15.90
2023-02-08T16:20:33.949Z,18.40
2023-02-08T16:23:03.356Z,24.30
2023-02-08T16:25:34.907Z,25.30
2023-02-08T16:28:05.567Z,27.40
2023-02-08T16:30:34.041Z,28.50
2023-02-08T16:33:07.703Z,31.00
2023-02-08T16:35:37.194Z,31.90
2023-02-08T16:38:05.728Z,29.10
2023-02-08T16:40:52.985Z,28.80
2023-02-08T16:43:35.430Z,31.30
2023-02-08T16:46:11.173Z,28.10
2023-02-08T16:48:42.232Z,27.10
2023-02-08T16:51:16.198Z,27.20
2023-02-08T16:53:43.647Z,29.50
2023-02-08T16:56:10.717Z,29.30
2023-02-08T16:58:37.606Z,27.50
2023-02-08T17:01:04.735Z,38.40
2023-02-08T17:03:32.735Z,64.00
2023-02-08T17:06:11.001Z,58.80
2023-02-08T17:08:38.842Z,81.00
2023-02-08T17:11:05.742Z,92.10
2023-02-08T17:13:32.571Z,50.00
2023-02-08T17:15:59.712Z,56.10
2023-02-08T17:18:26.661Z,52.80
2023-02-08T17:20:58.993Z,42.50
2023-02-08T17:23:26.410Z,37.90
2023-02-08T17:25:53.226Z,49.40
2023-02-08T17:28:20.118Z,64.80
2023-02-08T17:30:47.671Z,59.50
2023-02-08T17:33:17.576Z,59.30
2023-02-08T17:35:48.050Z,64.10
2023-02-08T17:38:15.201Z,94.70
2023-02-08T17:40:42.561Z,100.50
2023-02-08T17:43:10.169Z,67.60
2023-02-08T17:45:41.599Z,55.40
2023-02-08T17:48:08.630Z,54.00
2023-02-08T17:50:35.743Z,48.20
2023-02-08T17:53:03.532Z,34.70
2023-02-08T17:55:30.393Z,32.30
2023-02-08T17:57:57.505Z,33.30
2023-02-08T18:00:25.286Z,36.20
2023-02-08T18:02:53.767Z,38.10
2023-02-08T18:05:25.149Z,36.60
2023-02-08T18:07:53.817Z,33.70
2023-02-08T18:10:21.929Z,32.70
2023-02-08T18:12:49.660Z,32.30
2023-02-08T18:15:19.532Z,31.80
2023-02-08T18:17:47.673Z,32.00
2023-02-08T18:20:14.708Z,31.00
2023-02-08T18:22:42.907Z,31.70
2023-02-08T18:25:10.319Z,32.50
2023-02-08T18:27:37.371Z,32.70
2023-02-08T18:30:04.826Z,30.80
2023-02-08T18:32:31.991Z,30.40
2023-02-08T18:35:03.211Z,32.60
2023-02-08T18:37:31.678Z,31.10
2023-02-08T18:39:59.368Z,31.80
2023-02-08T18:42:26.370Z,32.90
2023-02-08T18:44:53.409Z,35.20
2023-02-08T18:47:20.288Z,34.40
2023-02-08T18:49:47.380Z,36.40
2023-02-08T18:52:16.801Z,39.30
2023-02-08T18:54:44.067Z,41.80
2023-02-08T18:57:10.915Z,42.80
2023-02-08T18:59:38.583Z,36.80
2023-02-08T19:02:06.658Z,39.10
2023-02-08T19:04:37.734Z,37.20
2023-02-08T19:07:06.804Z,39.40
2023-02-08T19:09:37.660Z,37.90
2023-02-08T19:12:05.447Z,37.40
2023-02-08T19:14:33.194Z,37.50
2023-02-08T19:17:00.381Z,42.40
2023-02-08T19:19:27.517Z,42.40
2023-02-08T19:21:54.642Z,39.60
2023-02-08T19:24:21.652Z,39.10
2023-02-08T19:26:48.485Z,41.80
2023-02-08T19:29:17.487Z,41.20
2023-02-08T19:31:45.156Z,43.80
2023-02-08T19:34:12.419Z,43.00
2023-02-08T19:36:44.960Z,44.20
2023-02-08T19:39:14.854Z,42.30
2023-02-08T19:41:42.611Z,39.90
2023-02-08T19:44:11.934Z,41.30
2023-02-08T19:46:39.330Z,38.70
2023-02-08T19:49:06.469Z,41.20
2023-02-08T19:51:36.581Z,40.60
2023-02-08T19:54:06.773Z,39.90
2023-02-08T19:56:35.061Z,41.10
2023-02-08T19:59:05.896Z,39.60
2023-02-08T20:01:34.160Z,39.30
2023-02-08T20:04:01.218Z,40.30
2023-02-08T20:06:30.330Z,38.70
2023-02-08T20:09:00.361Z,40.40
2023-02-08T20:11:37.076Z,40.00
2023-02-08T20:14:06.132Z,39.70
2023-02-08T20:16:33.723Z,38.80
2023-02-08T20:19:01.559Z,40.50
2023-02-08T20:21:28.854Z,43.60
2023-02-08T20:23:55.810Z,45.90
2023-02-08T20:26:26.112Z,48.20
2023-02-08T20:28:55.055Z,47.50
2023-02-08T20:31:24.772Z,44.80
2023-02-08T20:33:52.610Z,40.80
2023-02-08T20:36:26.530Z,41.70
2023-02-08T20:38:54.760Z,42.90
2023-02-08T20:41:22.520Z,44.50
2023-02-08T20:43:50.187Z,42.50
2023-02-08T20:46:23.608Z,43.00
2023-02-08T20:48:52.249Z,41.50
2023-02-08T20:51:20.596Z,42.00
2023-02-08T20:53:48.015Z,40.60
2023-02-08T20:56:18.811Z,40.50
2023-02-08T20:58:45.649Z,39.30
2023-02-08T21:01:15.614Z,30.50
2023-02-08T21:03:42.943Z,30.80
2023-02-08T21:06:14.101Z,30.20
2023-02-08T21:08:44.138Z,27.50
2023-02-08T21:11:11.842Z,29.80
2023-02-08T21:13:38.850Z,29.80
2023-02-08T21:16:06.880Z,31.40
2023-02-08T21:18:36.221Z,26.40
2023-02-08T21:21:04.442Z,25.10
2023-02-08T21:23:31.818Z,25.90
2023-02-08T21:25:59.705Z,24.50
2023-02-08T21:28:26.644Z,26.70
2023-02-08T21:31:00.923Z,25.70
2023-02-08T21:33:29.967Z,27.90
2023-02-08T21:36:00.307Z,33.80
2023-02-08T21:38:30.023Z,32.80
2023-02-08T21:40:56.777Z,29.50
2023-02-08T21:43:23.605Z,30.60
2023-02-08T21:45:50.692Z,30.10
2023-02-08T21:48:17.495Z,41.60
2023-02-08T21:51:03.091Z,37.80
2023-02-08T21:53:48.903Z,35.40
2023-02-08T21:56:16.171Z,47.80
2023-02-08T21:58:43.578Z,37.80
2023-02-08T22:01:10.538Z,38.70
2023-02-08T22:03:38.169Z,38.50
2023-02-08T22:06:05.329Z,38.20
2023-02-08T22:08:32.146Z,44.40
2023-02-08T22:11:04.027Z,49.70
2023-02-08T22:13:32.870Z,45.20
2023-02-08T22:16:01.916Z,48.70
2023-02-08T22:18:28.813Z,46.50
2023-02-08T22:20:55.970Z,45.80
2023-02-08T22:23:22.763Z,42.40
2023-02-08T22:25:52.486Z,41.20
2023-02-08T22:28:19.754Z,39.50
2023-02-08T22:30:48.549Z,39.00
2023-02-08T22:33:15.588Z,41.80
2023-02-08T22:35:42.807Z,37.80
2023-02-08T22:38:10.001Z,38.00
2023-02-08T22:40:36.947Z,38.90
2023-02-08T22:43:03.940Z,36.80
2023-02-08T22:45:31.245Z,42.30
2023-02-08T22:47:58.010Z,41.70
2023-02-08T22:50:24.843Z,41.60
2023-02-08T22:52:51.565Z,40.40
2023-02-08T22:55:18.535Z,39.60
2023-02-08T22:57:45.419Z,38.70
2023-02-08T23:00:13.963Z,41.80
2023-02-08T23:02:41.883Z,44.80
2023-02-08T23:05:08.736Z,45.30
2023-02-08T23:07:36.854Z,44.40
2023-02-08T23:10:05.028Z,41.10
2023-02-08T23:12:32.351Z,41.00
2023-02-08T23:14:59.250Z,41.10
2023-02-08T23:17:26.218Z,40.40
2023-02-08T23:19:53.040Z,41.10
2023-02-08T23:22:19.957Z,39.40
2023-02-08T23:24:46.794Z,39.40
2023-02-08T23:27:13.706Z,40.50
2023-02-08T23:29:40.720Z,40.00
2023-02-08T23:32:07.734Z,40.20
2023-02-08T23:34:34.834Z,39.90
2023-02-08T23:37:01.761Z,42.90
2023-02-08T23:39:28.679Z,44.60
2023-02-08T23:41:55.927Z,41.40
2023-02-08T23:44:23.060Z,40.00
2023-02-08T23:46:50.157Z,38.90
2023-02-08T23:49:16.986Z,37.40
2023-02-08T23:51:43.845Z,36.80
2023-02-08T23:54:11.144Z,39.80
2023-02-08T23:56:38.258Z,39.00
2023-02-08T23:59:07.630Z,36.70
